Latest Weather Observations for Moree

IDN60801

Issued at 2:32 pm EDT Wednesday 22 February 2017 (issued every 30 minutes, with the page automatically refreshed every 10 minutes)

About weather observations | Map of weather stations | Latest weather observations for NSW | Other Formats
Station Details ID: 053115 Name: MOREE AERO Lat: -29.49 Lon: 149.85 Height: 213.0 m
Data from the previous 72 hours. | See also: Recent months at Moree
Date/Time
EDT
Temp
°C
App
Temp
°C
Dew
Point
°C
Rel
Hum
%
Delta-T
°C
Wind Press
QNH
hPa
Press
MSL
hPa
Rain since
9am
mm
Dir  Spd
km/h
Gust
km/h
Spd
kts
Gust
kts
22/02:30pm 32.6 30.6 12.8 30 11.9 NE 15 22 8 12 1017.1 1015.8 0.0
22/02:00pm 31.8 29.2 12.1 30 11.7 NNE 17 32 9 17 1017.6 1016.3 0.0
22/01:30pm 31.4 28.6 12.7 32 11.2 ENE 19 32 10 17 1018.0 1016.7 0.0
22/01:00pm 31.4 28.9 13.6 33 10.8 N 19 32 10 17 1018.3 1017.0 0.0
22/12:30pm 30.7 28.5 14.3 36 10.0 NNE 19 28 10 15 1018.8 1017.5 0.0
22/12:00pm 29.7 26.4 13.9 38 9.6 NNE 24 32 13 17 1019.3 1018.0 0.0
22/11:30am 29.6 28.1 15.3 41 8.8 NNE 17 24 9 13 1019.6 1018.3 0.0
22/11:00am 28.6 26.9 16.2 47 7.7 NNE 20 30 11 16 1020.0 1018.8 0.0
22/10:30am 26.9 24.8 15.3 49 7.1 NE 20 30 11 16 1020.2 1019.0 0.0
22/10:00am 26.5 24.7 16.1 52 6.4 NNE 20 26 11 14 1020.5 1019.3 0.0
22/09:30am 25.5 22.4 15.5 54 6.1 NNE 26 33 14 18 1020.5 1019.3 0.0
22/09:00am 24.5 21.8 15.7 58 5.4 NE 24 33 13 18 1020.4 1019.2 0.0
22/08:30am 23.5 21.5 15.5 60 4.9 NE 20 28 11 15 1020.3 1019.1 0.0
22/08:00am 21.8 20.2 14.9 65 4.1 NE 17 20 9 11 1019.9 1018.7 0.0
22/07:30am 21.2 20.0 15.1 68 3.6 ENE 15 19 8 10 1019.6 1018.3 0.0
22/07:00am 19.7 17.6 14.7 73 2.9 ENE 19 22 10 12 1019.1 1017.8 0.0
22/06:30am 20.1 18.5 14.9 72 3.1 ENE 17 19 9 10 1018.8 1017.5 0.0
22/06:00am 20.3 19.0 14.7 70 3.3 ENE 15 19 8 10 1018.5 1017.2 0.0
22/05:30am 20.4 18.7 14.7 70 3.4 ENE 17 22 9 12 1018.2 1016.9 0.0
22/05:00am 20.0 18.2 14.4 70 3.3 ENE 17 22 9 12 1018.0 1016.7 0.0
22/04:30am 20.5 18.6 14.2 67 3.7 ENE 17 22 9 12 1017.8 1016.5 0.0
22/04:00am 20.9 18.5 14.3 66 3.9 ENE 20 26 11 14 1017.6 1016.3 0.0
22/03:30am 20.3 18.3 12.8 62 4.3 E 15 19 8 10 1017.4 1016.1 0.0
22/03:00am 20.6 17.7 12.3 59 4.7 E 19 24 10 13 1017.2 1015.9 0.0
22/02:30am 21.6 19.0 11.9 54 5.5 E 17 20 9 11 1017.1 1015.8 0.0
22/02:00am 21.1 17.9 10.0 49 6.0 E 17 19 9 10 1017.1 1015.8 0.0
22/01:30am 21.5 17.9 9.7 47 6.4 E 19 24 10 13 1017.2 1015.9 0.0
22/01:00am 21.7 18.6 8.9 44 6.9 ENE 15 19 8 10 1017.3 1016.0 0.0
22/12:30am 22.4 18.5 8.5 41 7.4 ENE 19 24 10 13 1017.2 1015.9 0.0
22/12:00am 21.8 18.9 8.0 41 7.3 E 13 17 7 9 1017.2 1015.9 0.0
 
Date/Time
EDT
Temp
°C
App
Temp
°C
Dew
Point
°C
Rel
Hum
%
Delta-T
°C
Wind Press
QNH
hPa
Press
MSL
hPa
Rain since
9am
mm
Dir  Spd
km/h
Gust
km/h
Spd
kts
Gust
kts
21/11:30pm 22.5 19.9 7.9 39 7.7 ESE 11 13 6 7 1017.3 1016.0 0.0
21/11:00pm 23.0 21.1 6.7 35 8.5 SE 6 7 3 4 1017.4 1016.1 0.0
21/10:30pm 23.2 19.5 4.7 30 9.3 SSE 13 13 7 7 1017.1 1015.8 0.0
21/10:00pm 23.6 21.9 6.0 32 9.0 ESE 4 9 2 5 1017.2 1015.9 0.0
21/09:30pm 24.6 23.4 6.4 31 9.5 ESE 2 7 1 4 1017.1 1015.8 0.0
21/09:00pm 25.0 23.3 5.7 29 9.9 NNE 4 7 2 4 1017.0 1015.7 0.0
21/08:30pm 25.5 23.5 6.2 29 10.1 NNE 6 7 3 4 1016.9 1015.6 0.0
21/08:00pm 27.2 24.3 4.9 24 11.5 N 9 9 5 5 1016.7 1015.4 0.0
21/07:30pm 28.4 25.5 4.6 22 12.3 NNE 9 11 5 6 1016.4 1015.2 0.0
21/07:00pm 29.2 26.0 3.2 19 13.2 NNE 9 13 5 7 1016.1 1014.9 0.0
21/06:30pm 29.8 26.2 2.9 18 13.6 N 11 15 6 8 1015.9 1014.7 0.0
21/06:00pm 29.8 25.8 2.9 18 13.6 NNE 13 17 7 9 1015.8 1014.6 0.0
21/05:30pm 30.2 27.3 2.5 17 14.0 N 7 13 4 7 1015.9 1014.7 0.0
21/05:00pm 30.5 26.6 3.5 18 13.9 N 13 17 7 9 1015.6 1014.4 0.0
21/04:30pm 30.3 26.4 3.4 18 13.8 NNW 13 19 7 10 1015.6 1014.4 0.0
21/04:00pm 30.3 26.0 3.4 18 13.8 N 15 22 8 12 1015.8 1014.6 0.0
21/03:30pm 30.1 26.2 3.2 18 13.7 N 13 20 7 11 1015.8 1014.6 0.0
21/03:00pm 30.7 27.6 3.7 18 13.9 NNW 9 17 5 9 1016.0 1014.8 0.0
21/02:30pm 30.3 27.2 3.4 18 13.8 SW 9 17 5 9 1016.2 1015.0 0.0
21/02:00pm 29.8 26.3 3.7 19 13.4 N 11 20 6 11 1016.8 1015.5 0.0
21/01:30pm 29.6 27.0 4.3 20 13.1 WNW 7 11 4 6 1017.3 1016.0 0.0
21/01:00pm 29.3 25.9 4.0 20 13.0 N 11 17 6 9 1017.3 1016.0 0.0
21/12:30pm 29.3 26.8 4.7 21 12.8 NNW 7 13 4 7 1017.7 1016.4 0.0
21/12:00pm 28.1 24.3 3.7 21 12.4 N 13 17 7 9 1018.1 1016.8 0.0
21/11:30am 27.5 24.5 9.3 32 10.1 N 15 19 8 10 1018.7 1017.4 0.0
21/11:00am 26.3 24.0 11.6 40 8.4 NNE 15 20 8 11 1019.2 1017.9 0.0
21/10:30am 26.0 23.6 12.5 43 7.9 NE 17 20 9 11 1019.2 1017.9 0.0
21/10:00am 24.8 22.6 12.1 45 7.3 NE 15 20 8 11 1019.1 1017.8 0.0
21/09:30am 23.1 21.0 11.2 47 6.7 ENE 13 17 7 9 1018.9 1017.6 0.0
21/09:00am 21.2 18.5 10.4 50 5.9 E 15 19 8 10 1018.7 1017.4 0.0
21/08:30am 18.9 16.5 9.9 56 4.8 E 13 15 7 8 1018.3 1017.0 0.0
21/08:00am 17.0 14.4 9.2 60 4.1 E 13 17 7 9 1018.0 1016.7 0.0
21/07:30am 15.6 12.2 9.1 65 3.4 E 17 20 9 11 1017.4 1016.1 0.0
21/07:00am 14.3 12.4 8.9 70 2.8 E 9 11 5 6 1016.8 1015.5 0.0
21/06:30am 14.5 13.0 8.5 67 3.1 SE 6 7 3 4 1016.3 1015.1 0.0
21/06:00am 14.7 13.0 8.2 65 3.3 E 7 11 4 6 1015.8 1014.6 0.0
21/05:30am 15.0 12.7 7.3 60 3.8 SE 9 11 5 6 1015.3 1014.0 0.0
21/05:00am 15.4 12.3 7.2 58 4.1 E 13 15 7 8 1015.0 1013.7 0.0
21/04:30am 15.9 12.8 7.1 56 4.4 ESE 13 17 7 9 1014.8 1013.5 0.0
21/04:00am 15.9 12.5 6.1 52 4.8 ESE 13 15 7 8 1014.9 1013.6 0.0
21/03:30am 16.5 12.8 4.5 45 5.7 S 13 17 7 9 1015.0 1013.7 0.0
21/03:00am 17.6 14.1 5.5 45 5.9 SSW 13 17 7 9 1014.8 1013.5 0.0
21/02:30am 16.6 14.4 6.1 50 5.2 SW 7 9 4 5 1015.0 1013.7 0.0
21/02:00am 16.4 14.1 5.7 49 5.2 SSW 7 9 4 5 1015.3 1014.0 0.0
21/01:30am 17.0 14.2 5.3 46 5.7 SSW 9 9 5 5 1015.3 1014.0 0.0
21/01:00am 17.1 14.7 5.1 45 5.8 SW 7 7 4 4 1015.7 1014.5 0.0
21/12:30am 17.4 14.7 3.7 40 6.5 SSW 7 7 4 4 1015.9 1014.7 0.0
21/12:00am 18.8 15.3 3.4 36 7.3 SW 11 11 6 6 1015.9 1014.7 0.0
 
Date/Time
EDT
Temp
°C
App
Temp
°C
Dew
Point
°C
Rel
Hum
%
Delta-T
°C
Wind Press
QNH
hPa
Press
MSL
hPa
Rain since
9am
mm
Dir  Spd
km/h
Gust
km/h
Spd
kts
Gust
kts
20/11:30pm 19.4 16.2 3.2 34 7.7 WSW 9 9 5 5 1015.6 1014.4 0.0
20/11:00pm 18.9 16.2 3.9 37 7.2 SW 7 9 4 5 1015.5 1014.2 0.0
20/10:30pm 19.3 16.6 3.9 36 7.4 SW 7 7 4 4 1015.3 1014.0 0.0
20/10:00pm 20.2 17.4 3.0 32 8.2 SW 7 7 4 4 1015.2 1013.9 0.0
20/09:30pm 21.5 18.5 2.2 28 9.1 SW 7 9 4 5 1014.6 1013.3 0.0
20/09:00pm 23.2 19.4 1.5 24 10.2 WSW 11 13 6 7 1014.4 1013.1 0.0
20/08:30pm 23.9 19.6 0.9 22 10.8 WSW 13 13 7 7 1014.1 1012.8 0.0
20/08:00pm 25.3 20.8 0.0 19 11.8 WSW 13 15 7 8 1013.5 1012.2 0.0
20/07:30pm 26.8 21.9 -0.3 17 12.7 WSW 15 19 8 10 1013.1 1011.8 0.0
20/07:00pm 28.3 22.7 0.1 16 13.5 WSW 19 24 10 13 1012.7 1011.4 0.0
20/06:30pm 28.4 23.2 0.2 16 13.5 WSW 17 22 9 12 1012.3 1011.0 0.0
20/06:00pm 29.1 23.9 -0.1 15 14.0 WSW 17 24 9 13 1012.0 1010.7 0.0
20/05:30pm 29.3 24.8 0.0 15 14.1 SW 13 30 7 16 1011.6 1010.4 0.0
20/05:00pm 28.9 23.1 -0.3 15 13.9 WSW 20 35 11 19 1011.4 1010.1 0.0
20/04:30pm 29.2 23.7 -2.0 13 14.4 W 17 26 9 14 1011.5 1010.3 0.0
20/04:00pm 28.4 22.4 -1.6 14 13.9 WSW 20 32 11 17 1011.6 1010.4 0.0
20/03:30pm 29.2 23.3 1.7 17 13.6 WSW 22 32 12 17 1011.7 1010.5 0.0
20/03:00pm 28.0 22.4 1.5 18 12.9 SW 20 35 11 19 1012.0 1010.7 0.0
20/02:30pm 28.4 23.0 1.0 17 13.3 WSW 19 33 10 18 1012.3 1011.0 0.0
20/02:00pm 26.8 21.5 -0.3 17 12.7 WSW 17 28 9 15 1012.6 1011.3 0.0
20/01:30pm 27.6 21.1 0.4 17 13.0 SW 24 37 13 20 1012.9 1011.6 0.0
20/01:00pm 26.9 20.8 0.6 18 12.5 WSW 22 32 12 17 1013.3 1012.0 0.0
20/12:30pm 26.5 21.2 1.7 20 12.0 SW 19 28 10 15 1013.6 1012.3 0.0
20/12:00pm 25.8 20.9 1.8 21 11.6 SW 17 30 9 16 1013.7 1012.4 0.0
20/11:30am 24.7 21.1 5.0 28 10.0 SW 13 20 7 11 1014.1 1012.8 0.0
20/11:00am 23.9 23.1 9.5 40 7.9 SSE 4 13 2 7 1014.1 1012.8 0.0
20/10:30am 22.5 21.5 10.3 46 6.7 S 6 13 3 7 1014.4 1013.1 0.0
20/10:00am 21.2 20.9 12.6 58 4.9 ESE 6 11 3 6 1014.3 1013.0 0.0
20/09:30am 19.9 19.7 13.6 67 3.6 SE 7 11 4 6 1014.2 1012.9 0.0
20/09:00am 17.1 17.0 13.4 79 2.1 N 6 11 3 6 1014.1 1012.8 0.2
20/08:30am 17.1 16.5 13.4 79 2.1 SE 9 11 5 6 1013.8 1012.5 0.2
20/08:00am 15.2 14.3 12.5 84 1.5 ESE 9 11 5 6 1013.6 1012.3 0.2
20/07:30am 13.5 11.6 9.0 74 2.3 S 9 11 5 6 1013.0 1011.7 0.2
20/07:00am 12.0 9.3 7.5 74 2.2 SSW 11 11 6 6 1012.5 1011.2 0.2
20/06:30am 12.1 9.8 7.4 73 2.3 SSW 9 11 5 6 1012.0 1010.7 0.2
20/06:00am 12.6 10.0 7.7 72 2.4 SW 11 13 6 7 1011.7 1010.5 0.2
20/05:30am 13.5 11.3 7.9 69 2.8 SW 9 11 5 6 1011.5 1010.3 0.2
20/05:00am 13.4 13.5 10.0 80 1.8 CALM 0 9 0 5 1011.3 1010.0 0.2
20/04:30am 14.6 12.6 10.0 74 2.4 W 11 13 6 7 1011.1 1009.8 0.2
20/04:00am 15.0 13.8 11.6 80 1.9 WNW 9 9 5 5 1011.0 1009.7 0.2
20/03:30am 15.1 14.1 13.3 89 1.0 WNW 11 11 6 6 1010.6 1009.3 0.2
20/03:00am 15.1 14.9 13.6 91 0.8 WNW 7 7 4 4 1010.5 1009.2 0.2
20/02:30am 15.3 15.2 13.3 88 1.1 W 6 7 3 4 1010.4 1009.1 0.2
20/02:00am 16.3 17.1 14.7 90 0.9 NW 4 9 2 5 1010.5 1009.2 0.2
20/01:30am 17.1 17.2 15.4 90 1.0 NNW 9 9 5 5 1010.6 1009.3 0.2
20/01:00am 17.8 17.2 15.6 87 1.3 NW 13 15 7 8 1010.9 1009.6 0.2
20/12:30am 18.4 17.6 16.2 87 1.3 WNW 15 17 8 9 1010.8 1009.5 0.2
20/12:00am 19.0 19.5 16.6 86 1.5 WNW 9 9 5 5 1010.7 1009.4 0.2
 
Date/Time
EDT
Temp
°C
App
Temp
°C
Dew
Point
°C
Rel
Hum
%
Delta-T
°C
Wind Press
QNH
hPa
Press
MSL
hPa
Rain since
9am
mm
Dir  Spd
km/h
Gust
km/h
Spd
kts
Gust
kts
19/11:30pm 19.2 19.3 16.6 85 1.6 N 11 15 6 8 1010.6 1009.3 0.2
19/11:00pm 19.4 19.8 16.4 83 1.8 N 9 13 5 7 1010.7 1009.4 0.2
19/10:30pm 19.7 19.0 16.3 81 2.1 N 15 20 8 11 1010.4 1009.1 0.2
19/10:00pm 20.0 20.5 16.6 81 2.1 N 9 15 5 8 1010.6 1009.3 0.2
19/09:30pm 20.0 19.5 16.8 82 2.0 N 15 20 8 11 1010.3 1009.0 0.2
19/09:00pm 20.2 18.3 16.6 80 2.2 NNE 22 26 12 14 1009.7 1008.4 0.2
19/08:30pm 20.8 19.2 16.6 77 2.6 NE 20 26 11 14 1009.2 1007.9 0.2
19/08:00pm 22.6 21.7 12.5 53 5.8 E 9 15 5 8 1008.7 1007.4 0.2
19/07:30pm 23.5 23.3 10.6 44 7.2 S 2 6 1 3 1008.3 1007.0 0.2
19/07:00pm 23.8 20.5 8.2 37 8.4 SW 15 19 8 10 1007.7 1006.4 0.2
19/06:42pm 24.5 20.9 8.5 36 8.7 WSW 17 37 9 20 1007.6 1006.3 0.2
19/06:30pm 24.8 23.2 8.7 36 8.8 SSW 7 11 4 6 1007.3 1005.9 0.2
19/06:00pm 25.0 19.2 8.1 34 9.1 WSW 28 33 15 18 1007.6 1006.3 0.2
19/05:30pm 27.0 22.1 8.4 31 10.2 W 24 30 13 16 1008.0 1006.7 0.2
19/05:00pm 27.2 23.3 9.5 33 9.9 W 20 30 11 16 1007.9 1006.6 0.2
19/04:30pm 26.4 24.2 13.2 44 7.8 NNE 17 22 9 12 1007.5 1006.2 0.2
19/04:00pm 27.1 25.4 12.3 39 8.7 WSW 13 19 7 10 1007.2 1005.8 0.2
19/03:30pm 25.5 23.9 14.0 49 6.9 WSW 15 19 8 10 1007.2 1005.8 0.2
19/03:00pm 25.8 23.1 11.6 41 8.2 WSW 17 20 9 11 1007.8 1006.5 0.2

Other Formats:

Comma delimited format used in spreadsheet applications
http://www.bom.gov.au/fwo/IDN60801/IDN60801.95527.axf

JavaScript Object Notation format (JSON) in row-major order
http://www.bom.gov.au/fwo/IDN60801/IDN60801.95527.json